sensor_id;sensor_type;location;lat;lon;timestamp;P1;durP1;ratioP1;P2;durP2;ratioP2
2656;SDS011;1338;48.176;11.792;2022-10-22T00:01:07;4.00;;;3.70;;
2656;SDS011;1338;48.176;11.792;2022-10-22T00:03:35;3.33;;;3.10;;
2656;SDS011;1338;48.176;11.792;2022-10-22T00:06:03;6.57;;;3.80;;
2656;SDS011;1338;48.176;11.792;2022-10-22T00:08:32;4.33;;;3.77;;
2656;SDS011;1338;48.176;11.792;2022-10-22T00:11:06;4.10;;;3.70;;
2656;SDS011;1338;48.176;11.792;2022-10-22T00:13:35;3.80;;;3.47;;
2656;SDS011;1338;48.176;11.792;2022-10-22T00:16:05;3.67;;;3.37;;
2656;SDS011;1338;48.176;11.792;2022-10-22T00:18:33;3.83;;;3.53;;
2656;SDS011;1338;48.176;11.792;2022-10-22T00:21:01;4.20;;;3.20;;
2656;SDS011;1338;48.176;11.792;2022-10-22T00:23:29;3.80;;;3.50;;
2656;SDS011;1338;48.176;11.792;2022-10-22T00:25:57;4.07;;;3.67;;
2656;SDS011;1338;48.176;11.792;2022-10-22T00:28:26;3.50;;;3.17;;
2656;SDS011;1338;48.176;11.792;2022-10-22T00:30:54;4.27;;;3.87;;
2656;SDS011;1338;48.176;11.792;2022-10-22T00:33:25;3.50;;;3.20;;
2656;SDS011;1338;48.176;11.792;2022-10-22T00:35:54;3.60;;;3.30;;
2656;SDS011;1338;48.176;11.792;2022-10-22T00:38:23;4.00;;;3.70;;
2656;SDS011;1338;48.176;11.792;2022-10-22T00:40:51;4.30;;;3.83;;
2656;SDS011;1338;48.176;11.792;2022-10-22T00:43:19;4.83;;;3.80;;
2656;SDS011;1338;48.176;11.792;2022-10-22T00:45:48;3.83;;;3.53;;
2656;SDS011;1338;48.176;11.792;2022-10-22T00:48:17;4.57;;;3.97;;
2656;SDS011;1338;48.176;11.792;2022-10-22T00:50:50;4.17;;;3.87;;
2656;SDS011;1338;48.176;11.792;2022-10-22T00:53:22;5.87;;;3.97;;
2656;SDS011;1338;48.176;11.792;2022-10-22T00:55:56;4.50;;;3.83;;
2656;SDS011;1338;48.176;11.792;2022-10-22T00:58:25;4.93;;;4.07;;
2656;SDS011;1338;48.176;11.792;2022-10-22T01:00:56;4.10;;;3.80;;
2656;SDS011;1338;48.176;11.792;2022-10-22T01:03:24;5.30;;;3.73;;
2656;SDS011;1338;48.176;11.792;2022-10-22T01:05:55;6.10;;;4.10;;
2656;SDS011;1338;48.176;11.792;2022-10-22T01:08:25;4.77;;;4.20;;
2656;SDS011;1338;48.176;11.792;2022-10-22T01:11:05;5.20;;;3.27;;
2656;SDS011;1338;48.176;11.792;2022-10-22T01:13:43;3.60;;;3.30;;
2656;SDS011;1338;48.176;11.792;2022-10-22T01:16:19;3.50;;;3.20;;
2656;SDS011;1338;48.176;11.792;2022-10-22T01:18:55;3.60;;;3.30;;
2656;SDS011;1338;48.176;11.792;2022-10-22T01:21:30;4.13;;;3.70;;
2656;SDS011;1338;48.176;11.792;2022-10-22T01:24:17;3.83;;;3.53;;
2656;SDS011;1338;48.176;11.792;2022-10-22T01:26:59;4.90;;;3.50;;
2656;SDS011;1338;48.176;11.792;2022-10-22T01:29:38;5.23;;;3.87;;
2656;SDS011;1338;48.176;11.792;2022-10-22T01:32:09;3.83;;;2.70;;
2656;SDS011;1338;48.176;11.792;2022-10-22T01:34:42;3.87;;;3.10;;
2656;SDS011;1338;48.176;11.792;2022-10-22T01:37:13;3.60;;;3.30;;
2656;SDS011;1338;48.176;11.792;2022-10-22T01:39:43;4.80;;;2.93;;
2656;SDS011;1338;48.176;11.792;2022-10-22T01:42:13;4.03;;;3.60;;
2656;SDS011;1338;48.176;11.792;2022-10-22T01:44:42;3.90;;;3.13;;
2656;SDS011;1338;48.176;11.792;2022-10-22T01:47:13;4.17;;;3.13;;
2656;SDS011;1338;48.176;11.792;2022-10-22T01:49:51;3.03;;;2.80;;
2656;SDS011;1338;48.176;11.792;2022-10-22T01:52:38;3.07;;;2.77;;
2656;SDS011;1338;48.176;11.792;2022-10-22T01:55:19;4.27;;;2.70;;
2656;SDS011;1338;48.176;11.792;2022-10-22T01:57:56;2.63;;;2.33;;
2656;SDS011;1338;48.176;11.792;2022-10-22T02:00:37;3.50;;;3.20;;
2656;SDS011;1338;48.176;11.792;2022-10-22T02:03:12;3.37;;;3.03;;
2656;SDS011;1338;48.176;11.792;2022-10-22T02:05:48;3.70;;;3.00;;
2656;SDS011;1338;48.176;11.792;2022-10-22T02:08:22;3.30;;;3.00;;
2656;SDS011;1338;48.176;11.792;2022-10-22T02:10:53;4.03;;;2.90;;
2656;SDS011;1338;48.176;11.792;2022-10-22T02:13:23;5.43;;;2.80;;
2656;SDS011;1338;48.176;11.792;2022-10-22T02:15:55;4.33;;;2.57;;
2656;SDS011;1338;48.176;11.792;2022-10-22T02:18:25;2.60;;;2.40;;
2656;SDS011;1338;48.176;11.792;2022-10-22T02:21:00;2.60;;;2.40;;
2656;SDS011;1338;48.176;11.792;2022-10-22T02:23:29;2.60;;;2.40;;
2656;SDS011;1338;48.176;11.792;2022-10-22T02:25:59;2.60;;;2.40;;
2656;SDS011;1338;48.176;11.792;2022-10-22T02:28:35;2.10;;;2.00;;
2656;SDS011;1338;48.176;11.792;2022-10-22T02:31:08;3.73;;;2.63;;
2656;SDS011;1338;48.176;11.792;2022-10-22T02:33:42;2.60;;;2.40;;
2656;SDS011;1338;48.176;11.792;2022-10-22T02:36:14;3.90;;;2.60;;
2656;SDS011;1338;48.176;11.792;2022-10-22T02:38:43;2.23;;;2.03;;
2656;SDS011;1338;48.176;11.792;2022-10-22T02:41:13;4.13;;;2.30;;
2656;SDS011;1338;48.176;11.792;2022-10-22T02:43:44;2.70;;;2.50;;
2656;SDS011;1338;48.176;11.792;2022-10-22T02:46:17;3.03;;;2.20;;
2656;SDS011;1338;48.176;11.792;2022-10-22T02:48:45;2.63;;;2.40;;
2656;SDS011;1338;48.176;11.792;2022-10-22T02:51:13;3.40;;;2.40;;
2656;SDS011;1338;48.176;11.792;2022-10-22T02:53:41;2.90;;;2.67;;
2656;SDS011;1338;48.176;11.792;2022-10-22T02:56:09;3.00;;;2.37;;
2656;SDS011;1338;48.176;11.792;2022-10-22T02:58:37;2.70;;;2.37;;
2656;SDS011;1338;48.176;11.792;2022-10-22T03:01:06;2.53;;;2.27;;
2656;SDS011;1338;48.176;11.792;2022-10-22T03:03:39;3.23;;;2.70;;
2656;SDS011;1338;48.176;11.792;2022-10-22T03:06:07;2.30;;;2.10;;
2656;SDS011;1338;48.176;11.792;2022-10-22T03:08:35;2.40;;;2.20;;
2656;SDS011;1338;48.176;11.792;2022-10-22T03:11:03;3.20;;;2.50;;
2656;SDS011;1338;48.176;11.792;2022-10-22T03:13:31;3.37;;;2.67;;
2656;SDS011;1338;48.176;11.792;2022-10-22T03:15:59;2.30;;;2.03;;
2656;SDS011;1338;48.176;11.792;2022-10-22T03:18:28;2.80;;;2.60;;
2656;SDS011;1338;48.176;11.792;2022-10-22T03:21:03;2.73;;;2.40;;
2656;SDS011;1338;48.176;11.792;2022-10-22T03:23:36;2.90;;;2.60;;
2656;SDS011;1338;48.176;11.792;2022-10-22T03:26:05;2.70;;;2.50;;
2656;SDS011;1338;48.176;11.792;2022-10-22T03:28:34;5.40;;;2.30;;
2656;SDS011;1338;48.176;11.792;2022-10-22T03:31:03;3.20;;;2.40;;
2656;SDS011;1338;48.176;11.792;2022-10-22T03:33:31;3.03;;;2.30;;
2656;SDS011;1338;48.176;11.792;2022-10-22T03:35:59;2.77;;;2.43;;
2656;SDS011;1338;48.176;11.792;2022-10-22T03:38:29;2.43;;;2.23;;
2656;SDS011;1338;48.176;11.792;2022-10-22T03:40:57;2.83;;;2.23;;
2656;SDS011;1338;48.176;11.792;2022-10-22T03:43:25;3.10;;;2.80;;
2656;SDS011;1338;48.176;11.792;2022-10-22T03:45:54;2.50;;;2.30;;
2656;SDS011;1338;48.176;11.792;2022-10-22T03:48:22;2.30;;;2.10;;
2656;SDS011;1338;48.176;11.792;2022-10-22T03:50:50;3.47;;;2.13;;
2656;SDS011;1338;48.176;11.792;2022-10-22T03:53:19;3.20;;;2.67;;
2656;SDS011;1338;48.176;11.792;2022-10-22T03:55:48;2.60;;;2.03;;
2656;SDS011;1338;48.176;11.792;2022-10-22T03:58:16;2.73;;;2.10;;
2656;SDS011;1338;48.176;11.792;2022-10-22T04:00:44;2.40;;;2.10;;
2656;SDS011;1338;48.176;11.792;2022-10-22T04:03:12;2.80;;;2.30;;
2656;SDS011;1338;48.176;11.792;2022-10-22T04:05:40;2.77;;;2.37;;
2656;SDS011;1338;48.176;11.792;2022-10-22T04:08:08;2.57;;;2.10;;
2656;SDS011;1338;48.176;11.792;2022-10-22T04:10:37;2.50;;;2.20;;
2656;SDS011;1338;48.176;11.792;2022-10-22T04:13:05;2.30;;;2.10;;
2656;SDS011;1338;48.176;11.792;2022-10-22T04:15:33;1.97;;;1.87;;
2656;SDS011;1338;48.176;11.792;2022-10-22T04:18:02;2.40;;;2.20;;
2656;SDS011;1338;48.176;11.792;2022-10-22T04:20:30;2.10;;;1.90;;
2656;SDS011;1338;48.176;11.792;2022-10-22T04:22:58;2.30;;;2.10;;
2656;SDS011;1338;48.176;11.792;2022-10-22T04:25:26;1.97;;;1.87;;
2656;SDS011;1338;48.176;11.792;2022-10-22T04:27:55;2.13;;;1.77;;
2656;SDS011;1338;48.176;11.792;2022-10-22T04:30:23;4.10;;;2.20;;
2656;SDS011;1338;48.176;11.792;2022-10-22T04:32:51;2.90;;;2.70;;
2656;SDS011;1338;48.176;11.792;2022-10-22T04:35:20;2.37;;;1.90;;
2656;SDS011;1338;48.176;11.792;2022-10-22T04:37:48;2.37;;;2.20;;
2656;SDS011;1338;48.176;11.792;2022-10-22T04:40:16;2.77;;;2.57;;
2656;SDS011;1338;48.176;11.792;2022-10-22T04:42:44;2.60;;;2.10;;
2656;SDS011;1338;48.176;11.792;2022-10-22T04:45:13;2.80;;;2.00;;
2656;SDS011;1338;48.176;11.792;2022-10-22T04:47:42;2.00;;;1.90;;
2656;SDS011;1338;48.176;11.792;2022-10-22T04:50:10;2.10;;;1.90;;
2656;SDS011;1338;48.176;11.792;2022-10-22T04:52:38;2.40;;;2.10;;
2656;SDS011;1338;48.176;11.792;2022-10-22T04:55:06;2.37;;;1.80;;
2656;SDS011;1338;48.176;11.792;2022-10-22T04:57:35;2.10;;;2.00;;
2656;SDS011;1338;48.176;11.792;2022-10-22T05:00:03;2.87;;;2.67;;
2656;SDS011;1338;48.176;11.792;2022-10-22T05:02:34;1.80;;;1.60;;
2656;SDS011;1338;48.176;11.792;2022-10-22T05:05:02;1.73;;;1.63;;
2656;SDS011;1338;48.176;11.792;2022-10-22T05:07:31;1.90;;;1.80;;
2656;SDS011;1338;48.176;11.792;2022-10-22T05:09:59;1.93;;;1.83;;
2656;SDS011;1338;48.176;11.792;2022-10-22T05:12:27;2.60;;;2.40;;
2656;SDS011;1338;48.176;11.792;2022-10-22T05:14:56;2.03;;;1.63;;
2656;SDS011;1338;48.176;11.792;2022-10-22T05:17:24;1.67;;;1.57;;
2656;SDS011;1338;48.176;11.792;2022-10-22T05:19:54;1.80;;;1.70;;
2656;SDS011;1338;48.176;11.792;2022-10-22T05:22:22;3.10;;;1.70;;
2656;SDS011;1338;48.176;11.792;2022-10-22T05:24:50;1.97;;;1.50;;
2656;SDS011;1338;48.176;11.792;2022-10-22T05:27:18;1.93;;;1.70;;
2656;SDS011;1338;48.176;11.792;2022-10-22T05:29:46;2.13;;;1.60;;
2656;SDS011;1338;48.176;11.792;2022-10-22T05:32:14;1.70;;;1.60;;
2656;SDS011;1338;48.176;11.792;2022-10-22T05:34:42;1.50;;;1.40;;
2656;SDS011;1338;48.176;11.792;2022-10-22T05:37:12;1.80;;;1.70;;
2656;SDS011;1338;48.176;11.792;2022-10-22T05:39:40;1.60;;;1.50;;
2656;SDS011;1338;48.176;11.792;2022-10-22T05:42:08;1.87;;;1.67;;
2656;SDS011;1338;48.176;11.792;2022-10-22T05:44:36;1.83;;;1.47;;
2656;SDS011;1338;48.176;11.792;2022-10-22T05:47:06;1.60;;;1.50;;
2656;SDS011;1338;48.176;11.792;2022-10-22T05:49:35;1.97;;;1.70;;
2656;SDS011;1338;48.176;11.792;2022-10-22T05:52:03;1.70;;;1.60;;
2656;SDS011;1338;48.176;11.792;2022-10-22T05:54:33;1.63;;;1.40;;
2656;SDS011;1338;48.176;11.792;2022-10-22T05:57:01;1.83;;;1.50;;
2656;SDS011;1338;48.176;11.792;2022-10-22T05:59:29;3.30;;;1.80;;
2656;SDS011;1338;48.176;11.792;2022-10-22T06:01:57;3.73;;;1.70;;
2656;SDS011;1338;48.176;11.792;2022-10-22T06:04:25;1.50;;;1.40;;
2656;SDS011;1338;48.176;11.792;2022-10-22T06:06:53;1.80;;;1.50;;
2656;SDS011;1338;48.176;11.792;2022-10-22T06:09:22;1.73;;;1.63;;
2656;SDS011;1338;48.176;11.792;2022-10-22T06:11:55;1.93;;;1.50;;
2656;SDS011;1338;48.176;11.792;2022-10-22T06:14:24;1.60;;;1.50;;
2656;SDS011;1338;48.176;11.792;2022-10-22T06:16:53;1.50;;;1.40;;
2656;SDS011;1338;48.176;11.792;2022-10-22T06:19:21;1.80;;;1.67;;
2656;SDS011;1338;48.176;11.792;2022-10-22T06:21:52;1.53;;;1.37;;
2656;SDS011;1338;48.176;11.792;2022-10-22T06:24:20;2.00;;;1.43;;
2656;SDS011;1338;48.176;11.792;2022-10-22T06:26:48;1.87;;;1.50;;
2656;SDS011;1338;48.176;11.792;2022-10-22T06:29:18;1.50;;;1.40;;
2656;SDS011;1338;48.176;11.792;2022-10-22T06:31:46;1.33;;;1.23;;
2656;SDS011;1338;48.176;11.792;2022-10-22T06:34:15;1.80;;;1.70;;
2656;SDS011;1338;48.176;11.792;2022-10-22T06:36:44;1.63;;;1.50;;
2656;SDS011;1338;48.176;11.792;2022-10-22T06:39:13;1.80;;;1.60;;
2656;SDS011;1338;48.176;11.792;2022-10-22T06:41:42;2.70;;;1.30;;
2656;SDS011;1338;48.176;11.792;2022-10-22T06:44:15;1.40;;;1.30;;
2656;SDS011;1338;48.176;11.792;2022-10-22T06:46:47;1.60;;;1.50;;
2656;SDS011;1338;48.176;11.792;2022-10-22T06:49:15;2.40;;;1.73;;
2656;SDS011;1338;48.176;11.792;2022-10-22T06:51:44;2.90;;;1.40;;
2656;SDS011;1338;48.176;11.792;2022-10-22T06:54:12;1.40;;;1.30;;
2656;SDS011;1338;48.176;11.792;2022-10-22T06:56:40;1.40;;;1.30;;
2656;SDS011;1338;48.176;11.792;2022-10-22T06:59:08;1.50;;;1.20;;
2656;SDS011;1338;48.176;11.792;2022-10-22T07:01:36;4.50;;;1.47;;
2656;SDS011;1338;48.176;11.792;2022-10-22T07:04:06;1.43;;;1.33;;
2656;SDS011;1338;48.176;11.792;2022-10-22T07:06:36;1.73;;;1.30;;
2656;SDS011;1338;48.176;11.792;2022-10-22T07:09:04;1.60;;;1.50;;
2656;SDS011;1338;48.176;11.792;2022-10-22T07:11:36;2.17;;;1.33;;
2656;SDS011;1338;48.176;11.792;2022-10-22T07:14:08;2.93;;;1.97;;
2656;SDS011;1338;48.176;11.792;2022-10-22T07:16:36;1.80;;;1.40;;
2656;SDS011;1338;48.176;11.792;2022-10-22T07:19:08;3.83;;;2.00;;
2656;SDS011;1338;48.176;11.792;2022-10-22T07:21:36;3.10;;;2.00;;
2656;SDS011;1338;48.176;11.792;2022-10-22T07:24:05;3.57;;;2.30;;
2656;SDS011;1338;48.176;11.792;2022-10-22T07:26:33;2.27;;;1.80;;
2656;SDS011;1338;48.176;11.792;2022-10-22T07:29:02;2.43;;;2.00;;
2656;SDS011;1338;48.176;11.792;2022-10-22T07:31:31;1.80;;;1.67;;
2656;SDS011;1338;48.176;11.792;2022-10-22T07:33:59;3.10;;;1.83;;
2656;SDS011;1338;48.176;11.792;2022-10-22T07:36:29;2.07;;;1.63;;
2656;SDS011;1338;48.176;11.792;2022-10-22T07:38:57;2.03;;;1.77;;
2656;SDS011;1338;48.176;11.792;2022-10-22T07:41:27;1.40;;;1.30;;
2656;SDS011;1338;48.176;11.792;2022-10-22T07:43:56;1.70;;;1.60;;
2656;SDS011;1338;48.176;11.792;2022-10-22T07:46:25;1.90;;;1.80;;
2656;SDS011;1338;48.176;11.792;2022-10-22T07:48:53;2.53;;;1.70;;
2656;SDS011;1338;48.176;11.792;2022-10-22T07:51:22;1.87;;;1.77;;
2656;SDS011;1338;48.176;11.792;2022-10-22T07:53:51;2.07;;;1.80;;
2656;SDS011;1338;48.176;11.792;2022-10-22T07:56:19;1.83;;;1.50;;
2656;SDS011;1338;48.176;11.792;2022-10-22T07:58:47;1.77;;;1.67;;
2656;SDS011;1338;48.176;11.792;2022-10-22T08:01:16;1.90;;;1.70;;
2656;SDS011;1338;48.176;11.792;2022-10-22T08:03:44;2.17;;;1.60;;
2656;SDS011;1338;48.176;11.792;2022-10-22T08:06:12;2.80;;;1.70;;
2656;SDS011;1338;48.176;11.792;2022-10-22T08:08:41;2.07;;;1.80;;
2656;SDS011;1338;48.176;11.792;2022-10-22T08:11:12;2.50;;;1.87;;
2656;SDS011;1338;48.176;11.792;2022-10-22T08:13:40;2.23;;;1.80;;
2656;SDS011;1338;48.176;11.792;2022-10-22T08:16:11;1.80;;;1.70;;
2656;SDS011;1338;48.176;11.792;2022-10-22T08:18:39;2.00;;;1.77;;
2656;SDS011;1338;48.176;11.792;2022-10-22T08:21:08;1.90;;;1.70;;
2656;SDS011;1338;48.176;11.792;2022-10-22T08:23:37;1.83;;;1.73;;
2656;SDS011;1338;48.176;11.792;2022-10-22T08:26:05;2.73;;;2.00;;
2656;SDS011;1338;48.176;11.792;2022-10-22T08:28:34;1.93;;;1.80;;
2656;SDS011;1338;48.176;11.792;2022-10-22T08:31:03;2.10;;;1.70;;
2656;SDS011;1338;48.176;11.792;2022-10-22T08:33:32;2.10;;;1.90;;
2656;SDS011;1338;48.176;11.792;2022-10-22T08:36:01;2.70;;;1.97;;
2656;SDS011;1338;48.176;11.792;2022-10-22T08:38:29;2.23;;;1.70;;
2656;SDS011;1338;48.176;11.792;2022-10-22T08:40:59;2.13;;;1.60;;
2656;SDS011;1338;48.176;11.792;2022-10-22T08:43:56;1.90;;;1.77;;
2656;SDS011;1338;48.176;11.792;2022-10-22T08:49:48;1.87;;;1.77;;
2656;SDS011;1338;48.176;11.792;2022-10-22T08:52:17;2.07;;;1.80;;
2656;SDS011;1338;48.176;11.792;2022-10-22T08:54:49;1.90;;;1.80;;
2656;SDS011;1338;48.176;11.792;2022-10-22T08:57:22;2.93;;;2.23;;
2656;SDS011;1338;48.176;11.792;2022-10-22T09:00:14;2.80;;;2.10;;
2656;SDS011;1338;48.176;11.792;2022-10-22T09:02:54;2.43;;;1.87;;
2656;SDS011;1338;48.176;11.792;2022-10-22T09:05:31;2.70;;;2.30;;
2656;SDS011;1338;48.176;11.792;2022-10-22T09:08:08;2.53;;;1.93;;
2656;SDS011;1338;48.176;11.792;2022-10-22T09:10:38;4.20;;;1.77;;
2656;SDS011;1338;48.176;11.792;2022-10-22T09:13:13;3.10;;;2.10;;
2656;SDS011;1338;48.176;11.792;2022-10-22T09:15:46;1.97;;;1.87;;
2656;SDS011;1338;48.176;11.792;2022-10-22T09:18:21;2.10;;;1.90;;
2656;SDS011;1338;48.176;11.792;2022-10-22T09:21:00;2.13;;;1.93;;
2656;SDS011;1338;48.176;11.792;2022-10-22T09:23:35;2.87;;;2.10;;
2656;SDS011;1338;48.176;11.792;2022-10-22T09:26:08;3.73;;;2.30;;
2656;SDS011;1338;48.176;11.792;2022-10-22T09:28:41;2.20;;;2.10;;
2656;SDS011;1338;48.176;11.792;2022-10-22T09:31:11;2.20;;;2.00;;
2656;SDS011;1338;48.176;11.792;2022-10-22T09:33:41;2.63;;;2.23;;
2656;SDS011;1338;48.176;11.792;2022-10-22T09:36:12;3.00;;;2.70;;
2656;SDS011;1338;48.176;11.792;2022-10-22T09:38:44;2.57;;;2.37;;
2656;SDS011;1338;48.176;11.792;2022-10-22T09:41:14;4.20;;;2.40;;
2656;SDS011;1338;48.176;11.792;2022-10-22T09:43:45;2.93;;;2.20;;
2656;SDS011;1338;48.176;11.792;2022-10-22T09:46:15;2.20;;;2.00;;
2656;SDS011;1338;48.176;11.792;2022-10-22T09:48:46;2.03;;;1.70;;
2656;SDS011;1338;48.176;11.792;2022-10-22T09:51:17;1.97;;;1.47;;
2656;SDS011;1338;48.176;11.792;2022-10-22T09:53:54;2.03;;;1.60;;
2656;SDS011;1338;48.176;11.792;2022-10-22T09:56:24;2.10;;;1.90;;
2656;SDS011;1338;48.176;11.792;2022-10-22T09:58:54;2.40;;;1.67;;
2656;SDS011;1338;48.176;11.792;2022-10-22T10:01:25;1.70;;;1.60;;
2656;SDS011;1338;48.176;11.792;2022-10-22T10:04:00;1.90;;;1.80;;
2656;SDS011;1338;48.176;11.792;2022-10-22T10:06:35;2.23;;;1.97;;
2656;SDS011;1338;48.176;11.792;2022-10-22T10:09:08;1.73;;;1.63;;
2656;SDS011;1338;48.176;11.792;2022-10-22T10:11:44;2.33;;;2.00;;
2656;SDS011;1338;48.176;11.792;2022-10-22T10:14:17;1.60;;;1.50;;
2656;SDS011;1338;48.176;11.792;2022-10-22T10:16:51;2.47;;;1.63;;
2656;SDS011;1338;48.176;11.792;2022-10-22T10:19:39;3.33;;;2.00;;
2656;SDS011;1338;48.176;11.792;2022-10-22T10:22:19;1.97;;;1.80;;
2656;SDS011;1338;48.176;11.792;2022-10-22T10:25:01;1.87;;;1.77;;
2656;SDS011;1338;48.176;11.792;2022-10-22T10:27:39;1.60;;;1.50;;
2656;SDS011;1338;48.176;11.792;2022-10-22T10:30:11;4.03;;;1.80;;
2656;SDS011;1338;48.176;11.792;2022-10-22T10:32:50;2.17;;;1.97;;
2656;SDS011;1338;48.176;11.792;2022-10-22T10:35:29;4.17;;;1.93;;
2656;SDS011;1338;48.176;11.792;2022-10-22T10:38:09;2.30;;;2.10;;
2656;SDS011;1338;48.176;11.792;2022-10-22T10:41:01;2.87;;;2.20;;
2656;SDS011;1338;48.176;11.792;2022-10-22T10:43:37;4.50;;;2.30;;
2656;SDS011;1338;48.176;11.792;2022-10-22T10:46:15;2.20;;;2.00;;
2656;SDS011;1338;48.176;11.792;2022-10-22T10:48:52;3.07;;;2.30;;
2656;SDS011;1338;48.176;11.792;2022-10-22T10:51:29;2.20;;;2.10;;
2656;SDS011;1338;48.176;11.792;2022-10-22T10:54:07;2.80;;;2.27;;
2656;SDS011;1338;48.176;11.792;2022-10-22T10:56:43;4.80;;;2.00;;
2656;SDS011;1338;48.176;11.792;2022-10-22T10:59:16;2.10;;;2.00;;
2656;SDS011;1338;48.176;11.792;2022-10-22T11:01:55;2.40;;;2.20;;
2656;SDS011;1338;48.176;11.792;2022-10-22T11:07:35;1.93;;;1.70;;
2656;SDS011;1338;48.176;11.792;2022-10-22T11:10:09;2.17;;;1.90;;
2656;SDS011;1338;48.176;11.792;2022-10-22T11:12:56;3.07;;;2.10;;
2656;SDS011;1338;48.176;11.792;2022-10-22T11:15:30;1.97;;;1.70;;
2656;SDS011;1338;48.176;11.792;2022-10-22T11:18:02;3.77;;;2.20;;
2656;SDS011;1338;48.176;11.792;2022-10-22T11:20:45;1.80;;;1.70;;
2656;SDS011;1338;48.176;11.792;2022-10-22T11:23:20;2.47;;;2.27;;
2656;SDS011;1338;48.176;11.792;2022-10-22T11:25:54;2.23;;;1.73;;
2656;SDS011;1338;48.176;11.792;2022-10-22T11:28:23;3.70;;;2.07;;
2656;SDS011;1338;48.176;11.792;2022-10-22T11:30:57;1.83;;;1.73;;
2656;SDS011;1338;48.176;11.792;2022-10-22T11:33:32;2.17;;;1.97;;
2656;SDS011;1338;48.176;11.792;2022-10-22T11:36:10;2.40;;;2.07;;
2656;SDS011;1338;48.176;11.792;2022-10-22T11:38:39;2.10;;;1.90;;
2656;SDS011;1338;48.176;11.792;2022-10-22T11:41:09;2.30;;;2.10;;
2656;SDS011;1338;48.176;11.792;2022-10-22T11:43:52;2.20;;;2.00;;
2656;SDS011;1338;48.176;11.792;2022-10-22T11:46:26;2.00;;;1.80;;
2656;SDS011;1338;48.176;11.792;2022-10-22T11:49:13;2.00;;;1.83;;
2656;SDS011;1338;48.176;11.792;2022-10-22T11:51:46;2.33;;;2.13;;
2656;SDS011;1338;48.176;11.792;2022-10-22T11:54:30;2.30;;;2.10;;
2656;SDS011;1338;48.176;11.792;2022-10-22T11:57:18;2.10;;;1.90;;
2656;SDS011;1338;48.176;11.792;2022-10-22T11:59:49;2.37;;;2.07;;
2656;SDS011;1338;48.176;11.792;2022-10-22T12:02:23;2.30;;;1.80;;
2656;SDS011;1338;48.176;11.792;2022-10-22T12:05:16;2.70;;;1.80;;
2656;SDS011;1338;48.176;11.792;2022-10-22T12:08:16;2.27;;;2.07;;
2656;SDS011;1338;48.176;11.792;2022-10-22T12:11:12;2.00;;;1.90;;
2656;SDS011;1338;48.176;11.792;2022-10-22T12:13:55;2.03;;;1.93;;
2656;SDS011;1338;48.176;11.792;2022-10-22T12:16:29;2.30;;;2.10;;
2656;SDS011;1338;48.176;11.792;2022-10-22T12:19:28;3.77;;;2.10;;
2656;SDS011;1338;48.176;11.792;2022-10-22T12:21:59;2.40;;;1.97;;
2656;SDS011;1338;48.176;11.792;2022-10-22T12:24:39;2.10;;;1.93;;
2656;SDS011;1338;48.176;11.792;2022-10-22T12:27:15;2.00;;;1.80;;
2656;SDS011;1338;48.176;11.792;2022-10-22T12:29:52;2.53;;;2.00;;
2656;SDS011;1338;48.176;11.792;2022-10-22T12:32:21;3.43;;;2.03;;
2656;SDS011;1338;48.176;11.792;2022-10-22T12:34:49;3.13;;;1.57;;
2656;SDS011;1338;48.176;11.792;2022-10-22T12:37:18;3.47;;;2.00;;
2656;SDS011;1338;48.176;11.792;2022-10-22T12:39:48;2.13;;;1.90;;
2656;SDS011;1338;48.176;11.792;2022-10-22T12:42:17;3.30;;;2.23;;
2656;SDS011;1338;48.176;11.792;2022-10-22T12:44:47;2.00;;;1.90;;
2656;SDS011;1338;48.176;11.792;2022-10-22T12:47:21;2.53;;;1.70;;
2656;SDS011;1338;48.176;11.792;2022-10-22T12:49:49;2.03;;;1.80;;
2656;SDS011;1338;48.176;11.792;2022-10-22T12:52:18;1.80;;;1.70;;
2656;SDS011;1338;48.176;11.792;2022-10-22T12:54:50;2.40;;;1.40;;
2656;SDS011;1338;48.176;11.792;2022-10-22T12:57:20;1.93;;;1.60;;
2656;SDS011;1338;48.176;11.792;2022-10-22T12:59:50;2.83;;;1.70;;
2656;SDS011;1338;48.176;11.792;2022-10-22T13:02:19;2.03;;;1.60;;
2656;SDS011;1338;48.176;11.792;2022-10-22T13:05:11;1.80;;;1.53;;
2656;SDS011;1338;48.176;11.792;2022-10-22T13:07:43;1.70;;;1.60;;
2656;SDS011;1338;48.176;11.792;2022-10-22T13:10:17;1.90;;;1.80;;
2656;SDS011;1338;48.176;11.792;2022-10-22T13:12:50;1.70;;;1.60;;
2656;SDS011;1338;48.176;11.792;2022-10-22T13:15:21;2.13;;;1.70;;
2656;SDS011;1338;48.176;11.792;2022-10-22T13:18:01;1.93;;;1.83;;
2656;SDS011;1338;48.176;11.792;2022-10-22T13:20:31;2.17;;;1.90;;
2656;SDS011;1338;48.176;11.792;2022-10-22T13:23:04;1.80;;;1.70;;
2656;SDS011;1338;48.176;11.792;2022-10-22T13:25:34;3.43;;;1.90;;
2656;SDS011;1338;48.176;11.792;2022-10-22T13:28:12;3.40;;;1.77;;
2656;SDS011;1338;48.176;11.792;2022-10-22T13:30:50;2.17;;;1.80;;
2656;SDS011;1338;48.176;11.792;2022-10-22T13:33:20;1.97;;;1.87;;
2656;SDS011;1338;48.176;11.792;2022-10-22T13:35:52;2.20;;;2.00;;
2656;SDS011;1338;48.176;11.792;2022-10-22T13:38:22;1.97;;;1.87;;
2656;SDS011;1338;48.176;11.792;2022-10-22T13:40:53;1.93;;;1.73;;
2656;SDS011;1338;48.176;11.792;2022-10-22T13:43:22;1.93;;;1.83;;
2656;SDS011;1338;48.176;11.792;2022-10-22T13:45:51;3.10;;;1.90;;
2656;SDS011;1338;48.176;11.792;2022-10-22T13:48:21;7.10;;;2.50;;
2656;SDS011;1338;48.176;11.792;2022-10-22T13:50:51;2.17;;;2.00;;
2656;SDS011;1338;48.176;11.792;2022-10-22T13:53:20;2.10;;;1.60;;
2656;SDS011;1338;48.176;11.792;2022-10-22T13:55:50;1.77;;;1.67;;
2656;SDS011;1338;48.176;11.792;2022-10-22T13:58:20;3.13;;;2.00;;
2656;SDS011;1338;48.176;11.792;2022-10-22T14:00:50;1.87;;;1.77;;
2656;SDS011;1338;48.176;11.792;2022-10-22T14:03:21;1.77;;;1.67;;
2656;SDS011;1338;48.176;11.792;2022-10-22T14:05:52;1.97;;;1.70;;
2656;SDS011;1338;48.176;11.792;2022-10-22T14:08:21;1.93;;;1.73;;
2656;SDS011;1338;48.176;11.792;2022-10-22T14:10:51;1.73;;;1.63;;
2656;SDS011;1338;48.176;11.792;2022-10-22T14:13:20;2.13;;;1.90;;
2656;SDS011;1338;48.176;11.792;2022-10-22T14:15:49;1.80;;;1.70;;
2656;SDS011;1338;48.176;11.792;2022-10-22T14:18:19;1.90;;;1.80;;
2656;SDS011;1338;48.176;11.792;2022-10-22T14:20:51;2.03;;;1.83;;
2656;SDS011;1338;48.176;11.792;2022-10-22T14:23:22;2.80;;;1.90;;
2656;SDS011;1338;48.176;11.792;2022-10-22T14:25:51;2.33;;;1.87;;
2656;SDS011;1338;48.176;11.792;2022-10-22T14:28:21;2.50;;;2.30;;
2656;SDS011;1338;48.176;11.792;2022-10-22T14:30:50;3.10;;;2.20;;
2656;SDS011;1338;48.176;11.792;2022-10-22T14:33:19;2.03;;;1.90;;
2656;SDS011;1338;48.176;11.792;2022-10-22T14:35:57;2.23;;;2.00;;
2656;SDS011;1338;48.176;11.792;2022-10-22T14:38:25;2.50;;;1.87;;
2656;SDS011;1338;48.176;11.792;2022-10-22T14:40:54;2.33;;;2.13;;
2656;SDS011;1338;48.176;11.792;2022-10-22T14:43:24;2.10;;;2.00;;
2656;SDS011;1338;48.176;11.792;2022-10-22T14:45:54;2.73;;;1.93;;
2656;SDS011;1338;48.176;11.792;2022-10-22T14:48:23;2.10;;;2.00;;
2656;SDS011;1338;48.176;11.792;2022-10-22T14:50:51;1.90;;;1.80;;
2656;SDS011;1338;48.176;11.792;2022-10-22T14:53:20;2.13;;;1.93;;
2656;SDS011;1338;48.176;11.792;2022-10-22T14:55:48;2.20;;;2.00;;
2656;SDS011;1338;48.176;11.792;2022-10-22T14:58:21;1.93;;;1.83;;
2656;SDS011;1338;48.176;11.792;2022-10-22T15:00:50;1.90;;;1.80;;
2656;SDS011;1338;48.176;11.792;2022-10-22T15:03:18;2.30;;;1.90;;
2656;SDS011;1338;48.176;11.792;2022-10-22T15:05:49;3.10;;;2.07;;
2656;SDS011;1338;48.176;11.792;2022-10-22T15:08:19;2.40;;;2.20;;
2656;SDS011;1338;48.176;11.792;2022-10-22T15:10:55;6.10;;;2.40;;
2656;SDS011;1338;48.176;11.792;2022-10-22T15:13:25;5.17;;;2.10;;
2656;SDS011;1338;48.176;11.792;2022-10-22T15:15:55;3.90;;;1.97;;
2656;SDS011;1338;48.176;11.792;2022-10-22T15:18:24;2.20;;;2.00;;
2656;SDS011;1338;48.176;11.792;2022-10-22T15:20:53;2.30;;;2.13;;
2656;SDS011;1338;48.176;11.792;2022-10-22T15:23:22;2.77;;;1.80;;
2656;SDS011;1338;48.176;11.792;2022-10-22T15:25:50;2.37;;;2.17;;
2656;SDS011;1338;48.176;11.792;2022-10-22T15:28:18;2.50;;;2.13;;
2656;SDS011;1338;48.176;11.792;2022-10-22T15:30:50;2.87;;;2.20;;
2656;SDS011;1338;48.176;11.792;2022-10-22T15:33:20;2.80;;;2.10;;